sensor_id;sensor_type;location;lat;lon;timestamp;pressure;altitude;pressure_sealevel;temperature;humidity
1371;BME280;14306;49.942;11.570;2024-02-15T00:00:28;97714.84;;;10.29;100.00
1371;BME280;14306;49.942;11.570;2024-02-15T00:02:04;97713.28;;;10.23;100.00
1371;BME280;14306;49.942;11.570;2024-02-15T00:03:37;97708.63;;;10.29;100.00
1371;BME280;14306;49.942;11.570;2024-02-15T00:05:12;97712.78;;;10.40;100.00
1371;BME280;14306;49.942;11.570;2024-02-15T00:06:47;97706.72;;;10.29;100.00
1371;BME280;14306;49.942;11.570;2024-02-15T00:08:22;97708.81;;;10.32;100.00
1371;BME280;14306;49.942;11.570;2024-02-15T00:09:55;97706.72;;;10.29;100.00
1371;BME280;14306;49.942;11.570;2024-02-15T00:11:29;97707.06;;;10.23;100.00
1371;BME280;14306;49.942;11.570;2024-02-15T00:13:03;97703.41;;;10.32;100.00
1371;BME280;14306;49.942;11.570;2024-02-15T00:14:39;97704.50;;;10.31;100.00
1371;BME280;14306;49.942;11.570;2024-02-15T00:16:14;97706.41;;;10.31;100.00
1371;BME280;14306;49.942;11.570;2024-02-15T00:17:49;97704.50;;;10.31;100.00
1371;BME280;14306;49.942;11.570;2024-02-15T00:19:24;97702.81;;;10.35;100.00
1371;BME280;14306;49.942;11.570;2024-02-15T00:20:57;97705.53;;;10.35;100.00
1371;BME280;14306;49.942;11.570;2024-02-15T00:22:33;97706.63;;;10.34;100.00
1371;BME280;14306;49.942;11.570;2024-02-15T00:24:06;97703.50;;;10.27;100.00
1371;BME280;14306;49.942;11.570;2024-02-15T00:25:40;97705.47;;;10.22;100.00
1371;BME280;14306;49.942;11.570;2024-02-15T00:27:16;97702.91;;;10.30;100.00
1371;BME280;14306;49.942;11.570;2024-02-15T00:28:50;97699.22;;;10.40;100.00
1371;BME280;14306;49.942;11.570;2024-02-15T00:30:25;97702.97;;;10.44;100.00
1371;BME280;14306;49.942;11.570;2024-02-15T00:32:00;97703.53;;;10.41;100.00
1371;BME280;14306;49.942;11.570;2024-02-15T00:33:36;97702.31;;;10.33;100.00
1371;BME280;14306;49.942;11.570;2024-02-15T00:35:10;97696.81;;;10.38;100.00
1371;BME280;14306;49.942;11.570;2024-02-15T00:36:45;97709.16;;;10.44;100.00
1371;BME280;14306;49.942;11.570;2024-02-15T00:38:19;97711.66;;;10.41;100.00
1371;BME280;14306;49.942;11.570;2024-02-15T00:39:52;97710.13;;;10.35;100.00
1371;BME280;14306;49.942;11.570;2024-02-15T00:41:26;97708.47;;;10.39;100.00
1371;BME280;14306;49.942;11.570;2024-02-15T00:43:01;97700.41;;;10.34;100.00
1371;BME280;14306;49.942;11.570;2024-02-15T00:44:35;97707.06;;;10.41;100.00
1371;BME280;14306;49.942;11.570;2024-02-15T00:46:08;97707.34;;;10.40;100.00
1371;BME280;14306;49.942;11.570;2024-02-15T00:47:43;97701.66;;;10.41;100.00
1371;BME280;14306;49.942;11.570;2024-02-15T00:49:17;97709.69;;;10.46;100.00
1371;BME280;14306;49.942;11.570;2024-02-15T00:50:53;97702.09;;;10.48;100.00
1371;BME280;14306;49.942;11.570;2024-02-15T00:52:26;97709.69;;;10.46;100.00
1371;BME280;14306;49.942;11.570;2024-02-15T00:54:02;97704.78;;;10.48;100.00
1371;BME280;14306;49.942;11.570;2024-02-15T00:55:36;97712.09;;;10.48;100.00
1371;BME280;14306;49.942;11.570;2024-02-15T00:57:10;97718.25;;;10.53;100.00
1371;BME280;14306;49.942;11.570;2024-02-15T00:58:44;97715.28;;;10.50;100.00
1371;BME280;14306;49.942;11.570;2024-02-15T01:00:18;97712.69;;;10.45;100.00
1371;BME280;14306;49.942;11.570;2024-02-15T01:01:53;97715.53;;;10.53;100.00
1371;BME280;14306;49.942;11.570;2024-02-15T01:03:27;97721.72;;;10.54;100.00
1371;BME280;14306;49.942;11.570;2024-02-15T01:05:02;97709.88;;;10.50;100.00
1371;BME280;14306;49.942;11.570;2024-02-15T01:06:37;97710.91;;;10.54;100.00
1371;BME280;14306;49.942;11.570;2024-02-15T01:08:10;97710.91;;;10.54;100.00
1371;BME280;14306;49.942;11.570;2024-02-15T01:09:44;97700.53;;;10.42;100.00
1371;BME280;14306;49.942;11.570;2024-02-15T01:11:18;97714.22;;;10.51;100.00
1371;BME280;14306;49.942;11.570;2024-02-15T01:12:52;97715.28;;;10.50;100.00
1371;BME280;14306;49.942;11.570;2024-02-15T01:14:26;97710.91;;;10.54;100.00
1371;BME280;14306;49.942;11.570;2024-02-15T01:16:04;97708.28;;;10.49;100.00
1371;BME280;14306;49.942;11.570;2024-02-15T01:17:38;97731.53;;;10.50;100.00
1371;BME280;14306;49.942;11.570;2024-02-15T01:19:11;97706.59;;;10.53;100.00
1371;BME280;14306;49.942;11.570;2024-02-15T01:20:47;97715.81;;;10.52;100.00
1371;BME280;14306;49.942;11.570;2024-02-15T01:22:20;97711.28;;;10.47;100.00
1371;BME280;14306;49.942;11.570;2024-02-15T01:23:56;97716.31;;;10.54;100.00
1371;BME280;14306;49.942;11.570;2024-02-15T01:25:30;97717.66;;;10.56;100.00
1371;BME280;14306;49.942;11.570;2024-02-15T01:27:04;97713.59;;;10.54;100.00
1371;BME280;14306;49.942;11.570;2024-02-15T01:28:40;97714.03;;;10.61;100.00
1371;BME280;14306;49.942;11.570;2024-02-15T01:30:16;97696.97;;;10.47;100.00
1371;BME280;14306;49.942;11.570;2024-02-15T01:31:49;97714.41;;;10.54;100.00
1371;BME280;14306;49.942;11.570;2024-02-15T01:33:23;97714.84;;;10.61;100.00
1371;BME280;14306;49.942;11.570;2024-02-15T01:34:57;97699.41;;;10.62;100.00
1371;BME280;14306;49.942;11.570;2024-02-15T01:36:33;97713.13;;;10.52;100.00
1371;BME280;14306;49.942;11.570;2024-02-15T01:38:07;97691.84;;;10.45;100.00
1371;BME280;14306;49.942;11.570;2024-02-15T01:39:41;97705.72;;;10.57;100.00
1371;BME280;14306;49.942;11.570;2024-02-15T01:41:14;97711.31;;;10.61;100.00
1371;BME280;14306;49.942;11.570;2024-02-15T01:42:48;97708.03;;;10.64;100.00
1371;BME280;14306;49.942;11.570;2024-02-15T01:44:22;97699.63;;;10.65;100.00
1371;BME280;14306;49.942;11.570;2024-02-15T01:45:58;97692.78;;;10.68;100.00
1371;BME280;14306;49.942;11.570;2024-02-15T01:47:34;97708.84;;;10.64;100.00
1371;BME280;14306;49.942;11.570;2024-02-15T01:49:09;97713.03;;;10.57;100.00
1371;BME280;14306;49.942;11.570;2024-02-15T01:50:45;97713.34;;;10.69;100.00
1371;BME280;14306;49.942;11.570;2024-02-15T01:52:22;97706.72;;;10.61;100.00
1371;BME280;14306;49.942;11.570;2024-02-15T01:53:55;97703.81;;;10.58;100.00
1371;BME280;14306;49.942;11.570;2024-02-15T01:55:29;97702.72;;;10.59;100.00
1371;BME280;14306;49.942;11.570;2024-02-15T01:57:03;97704.59;;;10.58;100.00
1371;BME280;14306;49.942;11.570;2024-02-15T01:58:39;97707.59;;;10.57;100.00
1371;BME280;14306;49.942;11.570;2024-02-15T02:00:15;97697.34;;;10.54;100.00
1371;BME280;14306;49.942;11.570;2024-02-15T02:01:51;97711.13;;;10.57;100.00
1371;BME280;14306;49.942;11.570;2024-02-15T02:03:25;97675.50;;;10.50;100.00
1371;BME280;14306;49.942;11.570;2024-02-15T02:04:59;97696.00;;;10.56;100.00
1371;BME280;14306;49.942;11.570;2024-02-15T02:06:33;97692.59;;;10.64;100.00
1371;BME280;14306;49.942;11.570;2024-02-15T02:08:09;97700.28;;;10.57;100.00
1371;BME280;14306;49.942;11.570;2024-02-15T02:09:42;97688.16;;;10.55;100.00
1371;BME280;14306;49.942;11.570;2024-02-15T02:11:18;97691.28;;;10.62;100.00
1371;BME280;14306;49.942;11.570;2024-02-15T02:12:53;97693.19;;;10.61;100.00
1371;BME280;14306;49.942;11.570;2024-02-15T02:14:26;97661.75;;;10.47;100.00
1371;BME280;14306;49.942;11.570;2024-02-15T02:16:01;97686.66;;;10.62;100.00
1371;BME280;14306;49.942;11.570;2024-02-15T02:17:34;97685.94;;;10.57;100.00
1371;BME280;14306;49.942;11.570;2024-02-15T02:19:09;97678.03;;;10.60;100.00
1371;BME280;14306;49.942;11.570;2024-02-15T02:20:42;97675.03;;;10.62;100.00
1371;BME280;14306;49.942;11.570;2024-02-15T02:22:19;97680.22;;;10.58;100.00
1371;BME280;14306;49.942;11.570;2024-02-15T02:23:56;97668.81;;;10.61;100.00
1371;BME280;14306;49.942;11.570;2024-02-15T02:25:32;97676.41;;;10.59;100.00
1371;BME280;14306;49.942;11.570;2024-02-15T02:27:07;97680.22;;;10.58;100.00
1371;BME280;14306;49.942;11.570;2024-02-15T02:28:43;97678.63;;;10.57;100.00
1371;BME280;14306;49.942;11.570;2024-02-15T02:30:18;97676.03;;;10.52;100.00
1371;BME280;14306;49.942;11.570;2024-02-15T02:31:54;97674.69;;;10.50;100.00
1371;BME280;14306;49.942;11.570;2024-02-15T02:33:28;97681.78;;;10.46;100.00
1371;BME280;14306;49.942;11.570;2024-02-15T02:35:02;97676.03;;;10.52;100.00
1371;BME280;14306;49.942;11.570;2024-02-15T02:36:36;97686.91;;;10.47;100.00
1371;BME280;14306;49.942;11.570;2024-02-15T02:38:11;97684.13;;;10.52;100.00
1371;BME280;14306;49.942;11.570;2024-02-15T02:39:44;97680.81;;;10.55;100.00
1371;BME280;14306;49.942;11.570;2024-02-15T02:41:20;97682.75;;;10.55;100.00
1371;BME280;14306;49.942;11.570;2024-02-15T02:42:56;97682.44;;;10.56;100.00
1371;BME280;14306;49.942;11.570;2024-02-15T02:44:32;97687.16;;;10.51;100.00
1371;BME280;14306;49.942;11.570;2024-02-15T02:46:06;97689.91;;;10.46;100.00
1371;BME280;14306;49.942;11.570;2024-02-15T02:47:39;97668.78;;;10.48;100.00
1371;BME280;14306;49.942;11.570;2024-02-15T02:49:13;97683.75;;;10.59;100.00
1371;BME280;14306;49.942;11.570;2024-02-15T02:50:47;97646.19;;;10.39;100.00
1371;BME280;14306;49.942;11.570;2024-02-15T02:52:21;97685.16;;;10.56;100.00
1371;BME280;14306;49.942;11.570;2024-02-15T02:53:57;97689.56;;;10.52;100.00
1371;BME280;14306;49.942;11.570;2024-02-15T02:55:31;97678.94;;;10.56;100.00
1371;BME280;14306;49.942;11.570;2024-02-15T02:57:06;97683.53;;;10.55;100.00
1371;BME280;14306;49.942;11.570;2024-02-15T02:58:40;97690.44;;;10.48;100.00
1371;BME280;14306;49.942;11.570;2024-02-15T03:00:16;97685.50;;;10.50;100.00
1371;BME280;14306;49.942;11.570;2024-02-15T03:01:50;97677.09;;;10.51;100.00
1371;BME280;14306;49.942;11.570;2024-02-15T03:03:24;97680.09;;;10.50;100.00
1371;BME280;14306;49.942;11.570;2024-02-15T03:04:57;97685.16;;;10.56;100.00
1371;BME280;14306;49.942;11.570;2024-02-15T03:06:33;97680.31;;;10.53;100.00
1371;BME280;14306;49.942;11.570;2024-02-15T03:08:08;97681.94;;;10.54;100.00
1371;BME280;14306;49.942;11.570;2024-02-15T03:09:41;97673.41;;;10.61;100.00
1371;BME280;14306;49.942;11.570;2024-02-15T03:11:15;97688.78;;;10.65;100.00
1371;BME280;14306;49.942;11.570;2024-02-15T03:12:50;97685.31;;;10.46;100.00
1371;BME280;14306;49.942;11.570;2024-02-15T03:14:25;97688.53;;;10.48;100.00
1371;BME280;14306;49.942;11.570;2024-02-15T03:15:58;97689.72;;;10.42;100.00
1371;BME280;14306;49.942;11.570;2024-02-15T03:17:32;97686.31;;;10.50;100.00
1371;BME280;14306;49.942;11.570;2024-02-15T03:19:06;97677.91;;;10.52;100.00
1371;BME280;14306;49.942;11.570;2024-02-15T03:20:42;97690.63;;;10.51;100.00
1371;BME280;14306;49.942;11.570;2024-02-15T03:22:16;97676.75;;;10.39;100.00
1371;BME280;14306;49.942;11.570;2024-02-15T03:23:49;97682.44;;;10.56;100.00
1371;BME280;14306;49.942;11.570;2024-02-15T03:25:23;97681.44;;;10.52;100.00
1371;BME280;14306;49.942;11.570;2024-02-15T03:26:58;97674.47;;;10.46;100.00
1371;BME280;14306;49.942;11.570;2024-02-15T03:28:32;97686.53;;;10.54;100.00
1371;BME280;14306;49.942;11.570;2024-02-15T03:30:09;97684.03;;;10.57;100.00
1371;BME280;14306;49.942;11.570;2024-02-15T03:31:44;97687.78;;;10.61;100.00
1371;BME280;14306;49.942;11.570;2024-02-15T03:33:18;97686.94;;;10.61;100.00
1371;BME280;14306;49.942;11.570;2024-02-15T03:34:51;97692.38;;;10.61;100.00
1371;BME280;14306;49.942;11.570;2024-02-15T03:36:27;97692.78;;;10.68;100.00
1371;BME280;14306;49.942;11.570;2024-02-15T03:38:02;97692.88;;;10.63;100.00
1371;BME280;14306;49.942;11.570;2024-02-15T03:39:36;97692.69;;;10.73;100.00
1371;BME280;14306;49.942;11.570;2024-02-15T03:41:10;97688.69;;;10.70;100.00
1371;BME280;14306;49.942;11.570;2024-02-15T03:42:44;97688.25;;;10.63;100.00
1371;BME280;14306;49.942;11.570;2024-02-15T03:44:19;97692.59;;;10.64;100.00
1371;BME280;14306;49.942;11.570;2024-02-15T03:45:53;97686.53;;;10.54;100.00
1371;BME280;14306;49.942;11.570;2024-02-15T03:47:26;97687.88;;;10.56;100.00
1371;BME280;14306;49.942;11.570;2024-02-15T03:49:02;97680.06;;;10.68;100.00
1371;BME280;14306;49.942;11.570;2024-02-15T03:50:36;97659.84;;;10.47;100.00
1371;BME280;14306;49.942;11.570;2024-02-15T03:52:10;97687.91;;;10.70;100.00
1371;BME280;14306;49.942;11.570;2024-02-15T03:53:44;97679.34;;;10.63;100.00
1371;BME280;14306;49.942;11.570;2024-02-15T03:55:17;97688.78;;;10.65;100.00
1371;BME280;14306;49.942;11.570;2024-02-15T03:56:52;97684.53;;;10.59;100.00
1371;BME280;14306;49.942;11.570;2024-02-15T03:58:25;97690.19;;;10.63;100.00
1371;BME280;14306;49.942;11.570;2024-02-15T04:00:01;97688.88;;;10.60;100.00
1371;BME280;14306;49.942;11.570;2024-02-15T04:01:37;97696.09;;;10.65;100.00
1371;BME280;14306;49.942;11.570;2024-02-15T04:03:10;97697.78;;;10.61;100.00
1371;BME280;14306;49.942;11.570;2024-02-15T04:04:45;97694.81;;;10.76;100.00
1371;BME280;14306;49.942;11.570;2024-02-15T04:06:20;97671.09;;;10.54;100.00
1371;BME280;14306;49.942;11.570;2024-02-15T04:07:57;97696.50;;;10.72;100.00
1371;BME280;14306;49.942;11.570;2024-02-15T04:09:31;97703.84;;;10.71;100.00
1371;BME280;14306;49.942;11.570;2024-02-15T04:11:07;97693.91;;;10.67;100.00
1371;BME280;14306;49.942;11.570;2024-02-15T04:12:40;97694.91;;;10.71;100.00
1371;BME280;14306;49.942;11.570;2024-02-15T04:14:16;97695.13;;;10.74;100.00
1371;BME280;14306;49.942;11.570;2024-02-15T04:15:52;97697.03;;;10.74;100.00
1371;BME280;14306;49.942;11.570;2024-02-15T04:17:28;97683.94;;;10.62;100.00
1371;BME280;14306;49.942;11.570;2024-02-15T04:19:02;97707.59;;;10.57;100.00
1371;BME280;14306;49.942;11.570;2024-02-15T04:20:37;97692.06;;;10.62;100.00
1371;BME280;14306;49.942;11.570;2024-02-15T04:22:11;97680.22;;;10.58;100.00
1371;BME280;14306;49.942;11.570;2024-02-15T04:23:45;97695.72;;;10.71;100.00
1371;BME280;14306;49.942;11.570;2024-02-15T04:25:18;97707.94;;;10.69;100.00
1371;BME280;14306;49.942;11.570;2024-02-15T04:26:55;97721.19;;;10.70;100.00
1371;BME280;14306;49.942;11.570;2024-02-15T04:28:30;97721.66;;;10.59;100.00
1371;BME280;14306;49.942;11.570;2024-02-15T04:30:07;97720.47;;;10.65;100.00
1371;BME280;14306;49.942;11.570;2024-02-15T04:31:43;97727.28;;;10.62;100.00
1371;BME280;14306;49.942;11.570;2024-02-15T04:33:17;97718.66;;;10.60;100.00
1371;BME280;14306;49.942;11.570;2024-02-15T04:34:51;97718.06;;;10.63;100.00
1371;BME280;14306;49.942;11.570;2024-02-15T04:36:25;97716.16;;;10.64;100.00
1371;BME280;14306;49.942;11.570;2024-02-15T04:37:59;97716.63;;;10.52;100.00
1371;BME280;14306;49.942;11.570;2024-02-15T04:39:33;97703.59;;;10.54;100.00
1371;BME280;14306;49.942;11.570;2024-02-15T04:41:06;97714.13;;;10.56;100.00
1371;BME280;14306;49.942;11.570;2024-02-15T04:42:42;97707.53;;;10.62;100.00
1371;BME280;14306;49.942;11.570;2024-02-15T04:44:18;97704.59;;;10.58;100.00
1371;BME280;14306;49.942;11.570;2024-02-15T04:45:53;97683.47;;;10.60;100.00
1371;BME280;14306;49.942;11.570;2024-02-15T04:47:28;97693.63;;;10.68;100.00
1371;BME280;14306;49.942;11.570;2024-02-15T04:49:03;97686.16;;;10.60;100.00
1371;BME280;14306;49.942;11.570;2024-02-15T04:50:36;97688.16;;;10.55;100.00
1371;BME280;14306;49.942;11.570;2024-02-15T04:52:10;97693.09;;;10.66;100.00
1371;BME280;14306;49.942;11.570;2024-02-15T04:53:44;97689.88;;;10.64;100.00
1371;BME280;14306;49.942;11.570;2024-02-15T04:55:19;97695.59;;;10.63;100.00
1371;BME280;14306;49.942;11.570;2024-02-15T04:56:52;97704.00;;;10.61;100.00
1371;BME280;14306;49.942;11.570;2024-02-15T04:58:27;97698.94;;;10.73;100.00
1371;BME280;14306;49.942;11.570;2024-02-15T05:00:02;97709.97;;;10.77;100.00
1371;BME280;14306;49.942;11.570;2024-02-15T05:01:42;97706.66;;;10.80;100.00
1371;BME280;14306;49.942;11.570;2024-02-15T05:03:17;97687.38;;;10.68;100.00
1371;BME280;14306;49.942;11.570;2024-02-15T05:04:51;97710.63;;;10.87;100.00
1371;BME280;14306;49.942;11.570;2024-02-15T05:06:30;97701.19;;;10.85;100.00
1371;BME280;14306;49.942;11.570;2024-02-15T05:08:05;97694.22;;;10.79;100.00
1371;BME280;14306;49.942;11.570;2024-02-15T05:09:38;97708.19;;;10.86;100.00
1371;BME280;14306;49.942;11.570;2024-02-15T05:11:13;97710.19;;;10.80;100.00
1371;BME280;14306;49.942;11.570;2024-02-15T05:12:50;97707.25;;;10.77;100.00
1371;BME280;14306;49.942;11.570;2024-02-15T05:14:26;97705.59;;;10.81;100.00
1371;BME280;14306;49.942;11.570;2024-02-15T05:15:59;97711.06;;;10.76;100.00
1371;BME280;14306;49.942;11.570;2024-02-15T05:17:33;97708.78;;;10.83;100.00
1371;BME280;14306;49.942;11.570;2024-02-15T05:19:08;97683.94;;;10.62;100.00
1371;BME280;14306;49.942;11.570;2024-02-15T05:20:44;97707.47;;;10.80;100.00
1371;BME280;14306;49.942;11.570;2024-02-15T05:22:17;97706.06;;;10.83;100.00
1371;BME280;14306;49.942;11.570;2024-02-15T05:23:51;97702.88;;;10.81;100.00
1371;BME280;14306;49.942;11.570;2024-02-15T05:25:26;97703.06;;;10.84;100.00
1371;BME280;14306;49.942;11.570;2024-02-15T05:27:00;97699.34;;;10.80;100.00
1371;BME280;14306;49.942;11.570;2024-02-15T05:28:34;97704.91;;;10.89;100.00
1371;BME280;14306;49.942;11.570;2024-02-15T05:30:09;97700.69;;;10.96;100.00
1371;BME280;14306;49.942;11.570;2024-02-15T05:31:45;97693.66;;;10.95;100.00
1371;BME280;14306;49.942;11.570;2024-02-15T05:33:19;97693.25;;;10.88;100.00
1371;BME280;14306;49.942;11.570;2024-02-15T05:34:55;97700.25;;;10.89;100.00
1371;BME280;14306;49.942;11.570;2024-02-15T05:36:29;97698.53;;;10.80;100.00
1371;BME280;14306;49.942;11.570;2024-02-15T05:38:03;97695.53;;;10.81;100.00
1371;BME280;14306;49.942;11.570;2024-02-15T05:39:39;97697.75;;;10.79;100.00
1371;BME280;14306;49.942;11.570;2024-02-15T05:41:12;97683.06;;;10.67;100.00
1371;BME280;14306;49.942;11.570;2024-02-15T05:42:46;97697.25;;;10.91;100.00
1371;BME280;14306;49.942;11.570;2024-02-15T05:44:20;97697.34;;;10.86;100.00
1371;BME280;14306;49.942;11.570;2024-02-15T05:45:54;97684.56;;;10.73;100.00
1371;BME280;14306;49.942;11.570;2024-02-15T05:47:28;97693.34;;;10.83;100.00
1371;BME280;14306;49.942;11.570;2024-02-15T05:49:02;97702.38;;;10.92;100.00
1371;BME280;14306;49.942;11.570;2024-02-15T05:50:40;97692.72;;;10.86;100.00
1371;BME280;14306;49.942;11.570;2024-02-15T05:52:14;97696.78;;;10.89;100.00
1371;BME280;14306;49.942;11.570;2024-02-15T05:53:48;97702.97;;;10.89;100.00
1371;BME280;14306;49.942;11.570;2024-02-15T05:55:22;97699.06;;;10.82;100.00
1371;BME280;14306;49.942;11.570;2024-02-15T05:56:56;97691.53;;;10.79;100.00
1371;BME280;14306;49.942;11.570;2024-02-15T05:58:36;97676.59;;;10.49;100.00
1371;BME280;14306;49.942;11.570;2024-02-15T06:00:10;97701.41;;;10.56;100.00
1371;BME280;14306;49.942;11.570;2024-02-15T06:01:54;97679.03;;;10.51;100.00
1371;BME280;14306;49.942;11.570;2024-02-15T06:03:29;97688.59;;;10.62;100.00
1371;BME280;14306;49.942;11.570;2024-02-15T06:05:04;97702.22;;;10.70;100.00
1371;BME280;14306;49.942;11.570;2024-02-15T06:06:41;97718.38;;;10.62;100.00
1371;BME280;14306;49.942;11.570;2024-02-15T06:08:16;97715.56;;;10.67;100.00
1371;BME280;14306;49.942;11.570;2024-02-15T06:09:53;97705.75;;;10.71;100.00
1371;BME280;14306;49.942;11.570;2024-02-15T06:11:26;97706.97;;;10.78;100.00
1371;BME280;14306;49.942;11.570;2024-02-15T06:13:01;97712.31;;;10.83;100.00
1371;BME280;14306;49.942;11.570;2024-02-15T06:14:34;97707.25;;;10.77;100.00
1371;BME280;14306;49.942;11.570;2024-02-15T06:16:09;97704.47;;;10.82;100.00
1371;BME280;14306;49.942;11.570;2024-02-15T06:17:43;97716.19;;;10.77;100.00
1371;BME280;14306;49.942;11.570;2024-02-15T06:19:18;97710.19;;;10.80;100.00
1371;BME280;14306;49.942;11.570;2024-02-15T06:20:53;97704.88;;;10.75;100.00
1371;BME280;14306;49.942;11.570;2024-02-15T06:22:29;97709.78;;;10.87;100.00
1371;BME280;14306;49.942;11.570;2024-02-15T06:24:04;97716.72;;;10.79;100.00
1371;BME280;14306;49.942;11.570;2024-02-15T06:25:39;97712.00;;;10.85;100.00
1371;BME280;14306;49.942;11.570;2024-02-15T06:27:12;97720.34;;;10.88;100.00
1371;BME280;14306;49.942;11.570;2024-02-15T06:28:49;97722.03;;;10.84;100.00
1371;BME280;14306;49.942;11.570;2024-02-15T06:30:40;97728.19;;;10.90;100.00
1371;BME280;14306;49.942;11.570;2024-02-15T06:32:32;97727.47;;;10.84;100.00
1371;BME280;14306;49.942;11.570;2024-02-15T06:34:24;97727.47;;;10.84;100.00
1371;BME280;14306;49.942;11.570;2024-02-15T06:36:16;97731.75;;;10.85;100.00
1371;BME280;14306;49.942;11.570;2024-02-15T06:38:09;97726.88;;;10.87;100.00
1371;BME280;14306;49.942;11.570;2024-02-15T06:40:01;97732.00;;;10.89;100.00
1371;BME280;14306;49.942;11.570;2024-02-15T06:41:35;97725.63;;;10.80;100.00
1371;BME280;14306;49.942;11.570;2024-02-15T06:43:09;97732.59;;;10.86;100.00
1371;BME280;14306;49.942;11.570;2024-02-15T06:44:43;97721.84;;;10.81;100.00
1371;BME280;14306;49.942;11.570;2024-02-15T06:46:17;97743.22;;;10.96;100.00
1371;BME280;14306;49.942;11.570;2024-02-15T06:47:52;97752.06;;;11.01;100.00
1371;BME280;14306;49.942;11.570;2024-02-15T06:49:26;97748.00;;;11.04;100.00
1371;BME280;14306;49.942;11.570;2024-02-15T06:51:00;97743.06;;;11.06;100.00
1371;BME280;14306;49.942;11.570;2024-02-15T06:52:34;97749.00;;;11.08;100.00
1371;BME280;14306;49.942;11.570;2024-02-15T06:54:10;97754.19;;;11.04;100.00
1371;BME280;14306;49.942;11.570;2024-02-15T06:55:43;97752.59;;;11.03;100.00
1371;BME280;14306;49.942;11.570;2024-02-15T06:57:19;97740.22;;;10.97;100.00
1371;BME280;14306;49.942;11.570;2024-02-15T06:58:54;97765.06;;;11.18;100.00
1371;BME280;14306;49.942;11.570;2024-02-15T07:00:28;97758.59;;;11.00;100.00
1371;BME280;14306;49.942;11.570;2024-02-15T07:02:03;97759.84;;;11.08;100.00
1371;BME280;14306;49.942;11.570;2024-02-15T07:03:41;97762.22;;;11.09;100.00
1371;BME280;14306;49.942;11.570;2024-02-15T07:05:15;97770.59;;;11.13;100.00
1371;BME280;14306;49.942;11.570;2024-02-15T07:06:50;97754.78;;;11.01;100.00
1371;BME280;14306;49.942;11.570;2024-02-15T07:08:24;97763.66;;;11.20;100.00
1371;BME280;14306;49.942;11.570;2024-02-15T07:10:00;97760.56;;;11.27;100.00
1371;BME280;14306;49.942;11.570;2024-02-15T07:11:36;97763.06;;;11.23;100.00
1371;BME280;14306;49.942;11.570;2024-02-15T07:13:10;97752.91;;;11.15;100.00
1371;BME280;14306;49.942;11.570;2024-02-15T07:14:45;97763.56;;;11.12;100.00
1371;BME280;14306;49.942;11.570;2024-02-15T07:16:20;97765.34;;;11.16;100.00
1371;BME280;14306;49.942;11.570;2024-02-15T07:17:55;97767.06;;;11.12;100.00
1371;BME280;14306;49.942;11.570;2024-02-15T07:19:29;97766.38;;;11.20;100.00
1371;BME280;14306;49.942;11.570;2024-02-15T07:21:06;97768.00;;;11.21;100.00
1371;BME280;14306;49.942;11.570;2024-02-15T07:22:44;97769.09;;;11.34;100.00
1371;BME280;14306;49.942;11.570;2024-02-15T07:24:19;97761.28;;;11.32;100.00
1371;BME280;14306;49.942;11.570;2024-02-15T07:25:55;97767.38;;;11.24;100.00
1371;BME280;14306;49.942;11.570;2024-02-15T07:27:28;97772.50;;;11.26;100.00
1371;BME280;14306;49.942;11.570;2024-02-15T07:29:03;97772.44;;;11.31;100.00
1371;BME280;14306;49.942;11.570;2024-02-15T07:30:39;97763.34;;;11.22;100.00
1371;BME280;14306;49.942;11.570;2024-02-15T07:32:12;97769.41;;;11.32;100.00
1371;BME280;14306;49.942;11.570;2024-02-15T07:33:48;97774.31;;;11.30;100.00
1371;BME280;14306;49.942;11.570;2024-02-15T07:35:21;97750.19;;;11.15;100.00
1371;BME280;14306;49.942;11.570;2024-02-15T07:36:58;97781.06;;;11.33;100.00
1371;BME280;14306;49.942;11.570;2024-02-15T07:38:32;97770.50;;;11.31;100.00
1371;BME280;14306;49.942;11.570;2024-02-15T07:40:08;97765.91;;;11.32;100.00
1371;BME280;14306;49.942;11.570;2024-02-15T07:41:43;97769.31;;;11.24;100.00
1371;BME280;14306;49.942;11.570;2024-02-15T07:43:18;97766.72;;;11.32;100.00
1371;BME280;14306;49.942;11.570;2024-02-15T07:44:52;97772.63;;;11.34;100.00
1371;BME280;14306;49.942;11.570;2024-02-15T07:46:27;97775.16;;;11.31;100.00
1371;BME280;14306;49.942;11.570;2024-02-15T07:48:02;97747.38;;;11.07;100.00
1371;BME280;14306;49.942;11.570;2024-02-15T07:49:38;97779.59;;;11.08;100.00
1371;BME280;14306;49.942;11.570;2024-02-15T07:51:12;97779.19;;;11.01;100.00
1371;BME280;14306;49.942;11.570;2024-02-15T07:52:47;97743.16;;;11.01;100.00
1371;BME280;14306;49.942;11.570;2024-02-15T07:54:23;97773.19;;;11.18;100.00
1371;BME280;14306;49.942;11.570;2024-02-15T07:55:59;97763.75;;;11.15;100.00
1371;BME280;14306;49.942;11.570;2024-02-15T07:57:33;97763.75;;;11.15;100.00
1371;BME280;14306;49.942;11.570;2024-02-15T07:59:07;97762.47;;;11.26;100.00
1371;BME280;14306;49.942;11.570;2024-02-15T08:00:40;97765.00;;;11.23;100.00
1371;BME280;14306;49.942;11.570;2024-02-15T08:02:16;97765.31;;;11.48;100.00
1371;BME280;14306;49.942;11.570;2024-02-15T08:03:55;97758.91;;;11.71;100.00
1371;BME280;14306;49.942;11.570;2024-02-15T08:05:29;97750.75;;;11.99;100.00
1371;BME280;14306;49.942;11.570;2024-02-15T08:07:03;97758.13;;;12.20;100.00
1371;BME280;14306;49.942;11.570;2024-02-15T08:08:37;97760.59;;;12.66;100.00
1371;BME280;14306;49.942;11.570;2024-02-15T08:10:14;97761.59;;;13.14;100.00
1371;BME280;14306;49.942;11.570;2024-02-15T08:11:47;97764.66;;;13.51;100.00
1371;BME280;14306;49.942;11.570;2024-02-15T08:13:23;97784.97;;;14.32;100.00
1371;BME280;14306;49.942;11.570;2024-02-15T08:15:01;97808.47;;;14.19;100.00
1371;BME280;14306;49.942;11.570;2024-02-15T08:16:37;97827.66;;;13.67;100.00